»·PEaware :: N235B KBFL-KMHV

N235B :: KBFL-KMHV

FLIGHT INFORMATION

Flight Status: Arrived
Operator: Privately registered:
United States
More flights under this callsign
Pilot: Jason D. (29273)
Aircraft: CESSNA 172 SKYHAWK
(C172)
More flights by this aircraft type
Origin: KBFL Meadows
United States
Destination: KMHV Mojave
United States
More flights between these airports :: More routes between these airports
Route: +KBFL DCT KMHV
File this flight plan on PilotEdge
Remarks:
Altitude:
(Current/Filed)
4,500ft
Speed:
(Current/Filed)
110kts
Departed: 08-Aug-20 06:35 PM
Arrived: 08-Aug-20 07:12 PM
Distance/Time
Traveled:
121nm/0:37
Distance/Time
To Go:
Arrived

Flight Plot

Page will automatically refresh every two minutes.

Flight plan parsing failed; only flown route is shown


Map Options




Map Legend


Flown Route
Filed Route
Departure Airport
Arrival Airport
Navaid (VOR, NDB)
Fix

Horizontal Profiles

Position Reports

Time Latitude Longitude Heading Altitude Ground
Speed
08-Aug-20 18:18 33.671189 -117.868027 211 60ft 0kts
08-Aug-20 18:19 35.429659 -119.046616 136 495ft 0kts
08-Aug-20 18:20 35.429659 -119.046616 136 495ft 0kts
08-Aug-20 18:21 35.429659 -119.046616 136 495ft 0kts
08-Aug-20 18:22 35.429659 -119.046616 136 495ft 0kts
08-Aug-20 18:23 35.429659 -119.046616 136 495ft 0kts
08-Aug-20 18:24 35.429659 -119.046616 136 495ft 0kts
08-Aug-20 18:25 35.429659 -119.046616 136 495ft 0kts
08-Aug-20 18:26 35.429659 -119.046616 136 495ft 0kts
08-Aug-20 18:27 35.429659 -119.046616 136 495ft 0kts
08-Aug-20 18:28 35.429659 -119.046616 136 495ft 0kts
08-Aug-20 18:29 35.429659 -119.046616 136 495ft 0kts
08-Aug-20 18:30 35.429659 -119.046616 136 495ft 0kts
08-Aug-20 18:31 35.429005 -119.046628 225 492ft 17kts
08-Aug-20 18:32 35.425864 -119.044998 216 480ft 0kts
08-Aug-20 18:33 35.425511 -119.045431 227 477ft 12kts
08-Aug-20 18:34 35.427324 -119.048329 316 480ft 58kts
08-Aug-20 18:35 35.441391 -119.066595 315 1172ft 65kts
08-Aug-20 18:36 35.432525 -119.079455 143 1804ft 77kts
08-Aug-20 18:37 35.418835 -119.060983 137 2365ft 75kts
08-Aug-20 18:38 35.415292 -119.027685 88 2409ft 129kts
08-Aug-20 18:39 35.403412 -118.983584 115 2409ft 141kts
08-Aug-20 18:40 35.385669 -118.940153 116 2410ft 143kts
08-Aug-20 18:41 35.367849 -118.896413 117 2411ft 143kts
08-Aug-20 18:42 35.350015 -118.852971 116 2413ft 143kts
08-Aug-20 18:43 35.334399 -118.815360 117 2997ft 103kts
08-Aug-20 18:44 35.326928 -118.788626 63 3542ft 74kts
08-Aug-20 18:45 35.324722 -118.764439 92 3830ft 74kts
08-Aug-20 18:46 35.322266 -118.740011 92 4040ft 73kts
08-Aug-20 18:47 35.319884 -118.715784 95 4348ft 74kts
08-Aug-20 18:48 35.316512 -118.688910 101 4604ft 99kts
08-Aug-20 18:49 35.309965 -118.648779 101 4631ft 132kts
08-Aug-20 18:50 35.282535 -118.620852 153 4657ft 134kts
08-Aug-20 18:51 35.250526 -118.596813 148 4678ft 136kts
08-Aug-20 18:52 35.228680 -118.558980 118 4714ft 137kts
08-Aug-20 18:53 35.208279 -118.519534 140 4735ft 133kts
08-Aug-20 18:54 35.194469 -118.485512 108 5467ft 99kts
08-Aug-20 18:55 35.184870 -118.454659 113 5944ft 101kts
08-Aug-20 18:56 35.169216 -118.420376 115 5795ft 138kts
08-Aug-20 18:57 35.153888 -118.382177 123 6155ft 116kts
08-Aug-20 18:58 35.140366 -118.347170 121 6553ft 105kts
08-Aug-20 18:59 35.126630 -118.314596 111 6874ft 108kts
08-Aug-20 19:00 35.114390 -118.276993 122 6729ft 132kts
08-Aug-20 19:01 35.100711 -118.236438 130 6179ft 122kts
08-Aug-20 19:02 35.080771 -118.205196 135 4925ft 119kts
08-Aug-20 19:03 35.059559 -118.180553 132 4039ft 91kts
08-Aug-20 19:04 35.042626 -118.158711 136 3409ft 89kts
08-Aug-20 19:05 35.029564 -118.135337 135 3445ft 76kts
08-Aug-20 19:06 35.018384 -118.112507 125 3553ft 77kts
08-Aug-20 19:07 35.007611 -118.089962 125 3807ft 75kts
08-Aug-20 19:08 35.015240 -118.083807 295 3648ft 105kts
08-Aug-20 19:09 35.028256 -118.107964 295 3212ft 81kts
08-Aug-20 19:10 35.042469 -118.127870 307 2820ft 76kts
08-Aug-20 19:11 35.051670 -118.139302 316 2709ft 31kts
08-Aug-20 19:12 35.057521 -118.147820 269 2741ft 0kts
08-Aug-20 19:13 35.057521 -118.147819 269 2741ft 0kts
08-Aug-20 19:14 35.056084 -118.152213 191 2747ft 0kts
08-Aug-20 19:15 35.056084 -118.152213 191 2747ft 0kts
08-Aug-20 19:16 33.671189 -117.868027 211 60ft 0kts
08-Aug-20 19:17 33.671189 -117.868027 211 60ft 0kts
08-Aug-20 19:18 33.671189 -117.868027 211 60ft 0kts
08-Aug-20 19:19 33.671189 -117.868027 211 60ft 0kts

Navigation Log

Ident Type
Flight plan parsing failed, navigation log unavailable